createdAt,value
2018-06-22T00:01:00.672Z,3.37
2018-06-22T00:03:30.206Z,4.97
2018-06-22T00:05:59.742Z,2.93
2018-06-22T00:08:29.220Z,2.30
2018-06-22T00:10:59.156Z,2.47
2018-06-22T00:13:28.542Z,2.60
2018-06-22T00:15:57.985Z,2.43
2018-06-22T00:18:27.120Z,1.83
2018-06-22T00:20:56.658Z,2.77
2018-06-22T00:23:26.060Z,2.77
2018-06-22T00:25:55.624Z,3.37
2018-06-22T00:28:25.163Z,3.60
2018-06-22T00:30:54.594Z,3.70
2018-06-22T00:33:24.051Z,4.27
2018-06-22T00:35:53.677Z,2.83
2018-06-22T00:38:23.109Z,2.83
2018-06-22T00:40:52.553Z,2.27
2018-06-22T00:43:22.008Z,2.40
2018-06-22T00:45:51.493Z,2.17
2018-06-22T00:48:20.898Z,2.30
2018-06-22T00:50:50.320Z,1.93
2018-06-22T00:53:36.717Z,2.13
2018-06-22T00:56:06.168Z,1.93
2018-06-22T00:58:35.366Z,1.90
2018-06-22T01:01:05.819Z,1.60
2018-06-22T01:03:35.254Z,1.93
2018-06-22T01:06:05.435Z,2.17
2018-06-22T01:08:34.897Z,2.07
2018-06-22T01:11:04.838Z,3.10
2018-06-22T01:13:34.257Z,2.57
2018-06-22T01:16:03.420Z,2.50
2018-06-22T01:18:32.896Z,2.70
2018-06-22T01:21:02.652Z,2.57
2018-06-22T01:23:32.793Z,3.10
2018-06-22T01:26:01.933Z,2.63
2018-06-22T01:28:31.765Z,2.27
2018-06-22T01:31:01.186Z,3.83
2018-06-22T01:33:31.204Z,2.90
2018-06-22T01:36:00.648Z,2.40
2018-06-22T01:38:30.538Z,3.80
2018-06-22T01:40:59.731Z,2.50
2018-06-22T01:43:29.230Z,2.60
2018-06-22T01:45:59.186Z,2.60
2018-06-22T01:48:29.527Z,2.63
2018-06-22T01:50:59.664Z,3.20
2018-06-22T01:53:29.673Z,3.20
2018-06-22T01:55:59.207Z,3.20
2018-06-22T01:58:29.330Z,3.60
2018-06-22T02:01:00.344Z,3.50
2018-06-22T02:03:29.769Z,2.57
2018-06-22T02:05:59.604Z,2.90
2018-06-22T02:08:29.019Z,2.73
2018-06-22T02:10:58.509Z,2.00
2018-06-22T02:13:28.179Z,1.97
2018-06-22T02:15:58.024Z,2.77
2018-06-22T02:18:27.491Z,1.77
2018-06-22T02:20:56.967Z,2.47
2018-06-22T02:23:26.557Z,2.40
2018-06-22T02:25:56.023Z,1.90
2018-06-22T02:28:25.982Z,1.73
2018-06-22T02:30:55.513Z,1.70
2018-06-22T02:33:24.948Z,2.20
2018-06-22T02:35:54.548Z,1.77
2018-06-22T02:38:24.170Z,1.27
2018-06-22T02:40:53.749Z,1.50
2018-06-22T02:43:23.232Z,1.67
2018-06-22T02:45:52.686Z,1.47
2018-06-22T02:48:23.155Z,1.10
2018-06-22T02:50:52.592Z,1.63
2018-06-22T02:53:22.085Z,1.30
2018-06-22T02:55:51.538Z,1.20
2018-06-22T02:58:20.976Z,1.03
2018-06-22T03:00:50.818Z,2.23
2018-06-22T03:03:20.364Z,2.13
2018-06-22T03:05:49.812Z,1.57
2018-06-22T03:08:19.226Z,1.30
2018-06-22T03:10:48.719Z,1.80
2018-06-22T03:13:18.118Z,2.27
2018-06-22T03:15:47.879Z,2.20
2018-06-22T03:18:17.343Z,1.60
2018-06-22T03:20:47.217Z,2.10
2018-06-22T03:23:16.689Z,2.10
2018-06-22T03:25:46.119Z,2.20
2018-06-22T03:28:15.706Z,1.90
2018-06-22T03:30:45.161Z,2.10
2018-06-22T03:33:14.937Z,2.27
2018-06-22T03:35:44.444Z,2.30
2018-06-22T03:38:13.919Z,1.67
2018-06-22T03:40:43.410Z,2.33
2018-06-22T03:43:12.862Z,2.10
2018-06-22T03:45:42.359Z,2.40
2018-06-22T03:48:11.810Z,3.23
2018-06-22T03:50:41.401Z,2.43
2018-06-22T03:53:10.977Z,2.73
2018-06-22T03:55:40.548Z,2.70
2018-06-22T03:58:09.977Z,3.13
2018-06-22T04:00:39.368Z,2.97
2018-06-22T04:03:09.013Z,2.07
2018-06-22T04:05:38.523Z,2.90
2018-06-22T04:08:08.201Z,3.13
2018-06-22T04:10:37.868Z,3.60
2018-06-22T04:13:07.361Z,2.80
2018-06-22T04:15:36.900Z,3.13
2018-06-22T04:18:07.096Z,2.27
2018-06-22T04:20:36.579Z,2.90
2018-06-22T04:23:06.097Z,2.50
2018-06-22T04:25:35.826Z,2.90
2018-06-22T04:28:05.407Z,2.90
2018-06-22T04:30:34.850Z,2.60
2018-06-22T04:33:04.431Z,2.80
2018-06-22T04:35:34.746Z,2.33
2018-06-22T04:38:04.287Z,2.40
2018-06-22T04:40:34.380Z,2.80
2018-06-22T04:43:04.987Z,1.67
2018-06-22T04:45:34.919Z,2.00
2018-06-22T04:48:05.417Z,2.10
2018-06-22T04:50:34.752Z,1.77
2018-06-22T04:53:04.917Z,1.93
2018-06-22T04:55:34.538Z,3.03
2018-06-22T04:58:04.017Z,1.77
2018-06-22T05:00:33.545Z,1.83
2018-06-22T05:03:03.439Z,1.60
2018-06-22T05:05:32.962Z,2.07
2018-06-22T05:08:02.460Z,2.03
2018-06-22T05:10:32.041Z,2.00
2018-06-22T05:13:03.652Z,3.20
2018-06-22T05:15:33.078Z,2.20
2018-06-22T05:18:03.575Z,2.30
2018-06-22T05:20:33.168Z,2.13
2018-06-22T05:23:02.737Z,2.27
2018-06-22T05:25:32.360Z,2.80
2018-06-22T05:28:01.898Z,2.77
2018-06-22T05:30:32.610Z,2.00
2018-06-22T05:33:03.059Z,1.63
2018-06-22T05:35:32.728Z,1.80
2018-06-22T05:38:02.169Z,2.67
2018-06-22T05:40:31.944Z,2.67
2018-06-22T05:43:01.415Z,2.00
2018-06-22T05:45:31.059Z,3.00
2018-06-22T05:48:00.621Z,2.13
2018-06-22T05:50:31.097Z,1.90
2018-06-22T05:53:01.522Z,3.10
2018-06-22T05:55:31.457Z,2.10
2018-06-22T05:58:02.625Z,1.70
2018-06-22T06:00:33.552Z,1.90
2018-06-22T06:03:03.793Z,1.93
2018-06-22T06:05:35.010Z,1.33
2018-06-22T06:08:04.546Z,2.30
2018-06-22T06:10:33.976Z,2.30
2018-06-22T06:13:03.139Z,3.37
2018-06-22T06:15:33.450Z,2.50
2018-06-22T06:18:02.941Z,3.73
2018-06-22T06:20:33.520Z,1.83
2018-06-22T06:23:02.982Z,2.03
2018-06-22T06:25:32.516Z,2.27
2018-06-22T06:28:02.010Z,2.50
2018-06-22T06:30:32.866Z,3.27
2018-06-22T06:33:02.354Z,2.10
2018-06-22T06:35:31.854Z,2.80
2018-06-22T06:38:01.401Z,2.10
2018-06-22T06:40:30.870Z,4.00
2018-06-22T06:43:00.970Z,2.80
2018-06-22T06:45:30.531Z,2.13
2018-06-22T06:48:00.115Z,2.57
2018-06-22T06:50:31.733Z,2.80
2018-06-22T06:53:01.559Z,2.17
2018-06-22T06:55:31.328Z,2.97
2018-06-22T06:58:00.996Z,2.60
2018-06-22T07:00:33.369Z,2.47
2018-06-22T07:03:04.270Z,2.73
2018-06-22T07:05:34.303Z,3.00
2018-06-22T07:08:03.875Z,2.77
2018-06-22T07:10:33.289Z,2.73
2018-06-22T07:13:03.335Z,3.63
2018-06-22T07:15:40.553Z,3.60
2018-06-22T07:18:10.927Z,3.80
2018-06-22T07:20:41.868Z,2.43
2018-06-22T07:23:12.013Z,2.90
2018-06-22T07:25:41.557Z,2.37
2018-06-22T07:28:11.405Z,2.73
2018-06-22T07:30:42.616Z,2.80
2018-06-22T07:33:12.655Z,3.13
2018-06-22T07:35:42.622Z,2.50
2018-06-22T07:38:12.568Z,3.30
2018-06-22T07:40:43.593Z,2.70
2018-06-22T07:43:13.116Z,3.10
2018-06-22T07:45:42.867Z,3.63
2018-06-22T07:48:13.068Z,3.20
2018-06-22T07:50:42.548Z,2.87
2018-06-22T07:53:12.033Z,3.70
2018-06-22T07:55:41.449Z,3.73
2018-06-22T07:58:10.979Z,3.57
2018-06-22T08:00:40.389Z,4.50
2018-06-22T08:03:09.999Z,4.23
2018-06-22T08:05:39.459Z,3.00
2018-06-22T08:08:09.567Z,2.83
2018-06-22T08:10:39.230Z,4.57
2018-06-22T08:13:08.685Z,3.70
2018-06-22T08:15:38.199Z,3.00
2018-06-22T08:18:07.830Z,3.30
2018-06-22T08:20:37.771Z,2.87
2018-06-22T08:23:07.227Z,3.50
2018-06-22T08:25:36.619Z,2.63
2018-06-22T08:28:06.897Z,2.80
2018-06-22T08:30:36.498Z,3.17
2018-06-22T08:33:06.250Z,3.47
2018-06-22T08:35:35.729Z,3.50
2018-06-22T08:38:06.157Z,3.07
2018-06-22T08:40:35.642Z,2.67
2018-06-22T08:43:05.097Z,3.50
2018-06-22T08:45:34.280Z,2.73
2018-06-22T08:48:04.497Z,2.47
2018-06-22T08:50:34.079Z,4.20
2018-06-22T08:53:03.613Z,3.43
2018-06-22T08:55:33.072Z,2.13
2018-06-22T08:58:02.701Z,2.17
2018-06-22T09:00:32.301Z,2.70
2018-06-22T09:03:01.844Z,2.60
2018-06-22T09:05:31.792Z,2.53
2018-06-22T09:08:01.522Z,2.23
2018-06-22T09:10:31.068Z,2.27
2018-06-22T09:13:00.924Z,2.00
2018-06-22T09:15:31.013Z,2.53
2018-06-22T09:18:00.441Z,2.27
2018-06-22T09:20:29.685Z,2.90
2018-06-22T09:22:59.192Z,2.57
2018-06-22T09:25:28.697Z,2.37
2018-06-22T09:27:58.236Z,2.40
2018-06-22T09:30:28.468Z,2.87
2018-06-22T09:32:58.028Z,2.50
2018-06-22T09:35:27.586Z,2.00
2018-06-22T09:37:57.075Z,1.80
2018-06-22T09:40:27.085Z,2.30
2018-06-22T09:42:56.646Z,2.17
2018-06-22T09:45:26.094Z,2.00
2018-06-22T09:47:55.785Z,2.20
2018-06-22T09:50:25.373Z,2.47
2018-06-22T09:52:54.881Z,1.97
2018-06-22T09:55:24.310Z,2.13
2018-06-22T09:57:53.745Z,2.37
2018-06-22T10:00:23.169Z,3.13
2018-06-22T10:02:53.274Z,2.33
2018-06-22T10:05:22.726Z,2.90
2018-06-22T10:07:52.219Z,2.00
2018-06-22T10:10:22.441Z,2.87
2018-06-22T10:12:52.409Z,1.50
2018-06-22T10:15:22.291Z,1.33
2018-06-22T10:17:51.822Z,2.27
2018-06-22T10:20:21.606Z,2.70
2018-06-22T10:22:51.139Z,2.20
2018-06-22T10:25:21.790Z,1.93
2018-06-22T10:27:51.385Z,3.23
2018-06-22T10:30:20.885Z,2.20
2018-06-22T10:32:50.390Z,1.60
2018-06-22T10:35:20.022Z,1.77
2018-06-22T10:37:49.566Z,1.97
2018-06-22T10:40:18.729Z,3.00
2018-06-22T10:42:48.147Z,2.00
2018-06-22T10:45:17.851Z,2.80
2018-06-22T10:47:47.946Z,2.10
2018-06-22T10:50:17.482Z,2.70
2018-06-22T10:52:47.270Z,2.07
2018-06-22T10:55:16.888Z,2.40
2018-06-22T10:57:46.425Z,2.10
2018-06-22T11:00:15.614Z,1.60
2018-06-22T11:02:45.063Z,1.80
2018-06-22T11:05:14.582Z,2.53
2018-06-22T11:07:44.112Z,2.00
2018-06-22T11:10:13.538Z,2.17
2018-06-22T11:12:43.098Z,1.90
2018-06-22T11:15:12.756Z,2.40
2018-06-22T11:17:42.223Z,1.90
2018-06-22T11:20:12.134Z,2.30
2018-06-22T11:22:42.177Z,2.00
2018-06-22T11:25:11.987Z,1.70
2018-06-22T11:27:41.390Z,1.83
2018-06-22T11:30:10.917Z,1.80
2018-06-22T11:32:40.614Z,1.70
2018-06-22T11:35:10.114Z,2.10
2018-06-22T11:37:39.701Z,1.93
2018-06-22T11:40:09.648Z,2.77
2018-06-22T11:42:39.106Z,1.73
2018-06-22T11:45:08.832Z,2.50
2018-06-22T11:47:38.457Z,1.37
2018-06-22T11:50:08.774Z,1.43
2018-06-22T11:52:38.205Z,2.00
2018-06-22T11:55:07.675Z,2.10
2018-06-22T11:57:37.324Z,1.73
2018-06-22T12:00:07.940Z,2.10
2018-06-22T12:02:37.482Z,1.87
2018-06-22T12:05:06.683Z,1.50
2018-06-22T12:07:36.138Z,2.33
2018-06-22T12:10:05.856Z,1.77
2018-06-22T12:12:35.441Z,1.53
2018-06-22T12:15:05.042Z,2.30
2018-06-22T12:17:35.280Z,2.10
2018-06-22T12:20:04.792Z,2.20
2018-06-22T12:22:34.709Z,2.00
2018-06-22T12:25:04.170Z,2.30
2018-06-22T12:27:33.696Z,2.20
2018-06-22T12:30:03.147Z,2.00
2018-06-22T12:32:33.124Z,2.47
2018-06-22T12:35:02.981Z,2.67
2018-06-22T12:37:32.453Z,1.83
2018-06-22T12:40:01.986Z,2.70
2018-06-22T12:42:31.605Z,2.00
2018-06-22T12:45:01.115Z,2.50
2018-06-22T12:47:31.274Z,2.30
2018-06-22T12:50:01.813Z,1.80
2018-06-22T12:52:31.383Z,2.20
2018-06-22T12:55:02.596Z,2.93
2018-06-22T12:57:32.979Z,2.43
2018-06-22T13:00:03.339Z,3.43
2018-06-22T13:02:33.894Z,2.13
2018-06-22T13:05:04.306Z,2.93
2018-06-22T13:07:33.827Z,1.97
2018-06-22T13:10:03.768Z,2.20
2018-06-22T13:12:33.354Z,2.70
2018-06-22T13:15:04.502Z,2.40
2018-06-22T13:17:33.901Z,1.87
2018-06-22T13:20:04.958Z,2.20
2018-06-22T13:22:34.473Z,2.40
2018-06-22T13:25:04.274Z,1.53
2018-06-22T13:27:33.662Z,2.00
2018-06-22T13:30:03.618Z,2.00
2018-06-22T13:32:33.267Z,1.97
2018-06-22T13:35:03.449Z,2.33
2018-06-22T13:37:32.849Z,2.40
2018-06-22T13:40:04.032Z,2.07
2018-06-22T13:42:33.935Z,2.23
2018-06-22T13:45:03.273Z,2.00
2018-06-22T13:47:33.606Z,2.40
2018-06-22T13:50:03.177Z,1.90
2018-06-22T13:52:32.429Z,2.10
2018-06-22T13:55:01.997Z,2.33
2018-06-22T13:57:31.549Z,2.00
2018-06-22T14:00:01.233Z,1.30
2018-06-22T14:02:30.946Z,2.20
2018-06-22T14:05:05.903Z,2.00
2018-06-22T14:07:35.580Z,2.00
2018-06-22T14:10:05.337Z,2.57
2018-06-22T14:12:35.233Z,3.13
2018-06-22T14:15:05.327Z,1.70
2018-06-22T14:17:35.307Z,1.80
2018-06-22T14:20:04.517Z,1.90
2018-06-22T14:22:34.287Z,2.20
2018-06-22T14:25:03.834Z,2.13
2018-06-22T14:27:33.945Z,2.03
2018-06-22T14:30:05.972Z,2.40
2018-06-22T14:32:36.560Z,1.93
2018-06-22T14:35:07.039Z,2.00
2018-06-22T14:37:36.560Z,2.00
2018-06-22T14:40:07.680Z,1.87
2018-06-22T14:42:37.277Z,2.10
2018-06-22T14:45:07.293Z,1.40
2018-06-22T14:47:36.758Z,2.13
2018-06-22T14:50:10.392Z,1.37
2018-06-22T14:52:39.905Z,1.40
2018-06-22T14:55:14.996Z,1.87
2018-06-22T14:57:49.551Z,2.23
2018-06-22T15:00:25.338Z,1.43
2018-06-22T15:03:00.253Z,1.63
2018-06-22T15:05:35.157Z,2.30
2018-06-22T15:08:06.008Z,1.90
2018-06-22T15:10:35.672Z,2.87
2018-06-22T15:13:05.161Z,3.30
2018-06-22T15:15:35.871Z,2.80
2018-06-22T15:18:06.008Z,2.83
2018-06-22T15:20:35.729Z,2.60
2018-06-22T15:23:05.339Z,2.93
2018-06-22T15:25:35.743Z,2.10
2018-06-22T15:28:05.825Z,2.03
2018-06-22T15:30:35.532Z,2.77
2018-06-22T15:33:09.749Z,2.23
2018-06-22T15:35:44.661Z,2.87
2018-06-22T15:38:19.381Z,1.80
2018-06-22T15:40:54.081Z,1.80
2018-06-22T15:43:28.743Z,2.10
2018-06-22T15:46:04.330Z,2.53
2018-06-22T15:48:44.925Z,2.90
2018-06-22T15:51:19.854Z,2.83
2018-06-22T15:53:56.182Z,2.87
2018-06-22T15:56:27.325Z,2.60
2018-06-22T15:58:57.167Z,2.50
2018-06-22T16:01:26.766Z,3.20
2018-06-22T16:03:58.097Z,3.03
2018-06-22T16:06:29.195Z,3.00
2018-06-22T16:08:58.844Z,2.43
2018-06-22T16:11:30.252Z,2.60
2018-06-22T16:14:05.090Z,2.10
2018-06-22T16:16:39.989Z,2.80
2018-06-22T16:19:14.867Z,3.40
2018-06-22T16:21:49.304Z,3.03
2018-06-22T16:24:24.755Z,3.10
2018-06-22T16:26:59.467Z,2.33
2018-06-22T16:29:29.300Z,3.37
2018-06-22T16:31:58.795Z,2.90
2018-06-22T16:34:28.228Z,3.20
2018-06-22T16:36:57.460Z,3.50
2018-06-22T16:39:27.010Z,2.63
2018-06-22T16:41:56.510Z,2.70
2018-06-22T16:44:26.015Z,2.60
2018-06-22T16:46:55.621Z,3.33
2018-06-22T16:49:26.330Z,2.97
2018-06-22T16:51:55.954Z,3.10
2018-06-22T16:54:25.407Z,3.43
2018-06-22T16:56:55.249Z,3.10
2018-06-22T16:59:24.750Z,3.03
2018-06-22T17:01:54.210Z,2.53
2018-06-22T17:04:23.808Z,2.67
2018-06-22T17:06:58.515Z,2.90
2018-06-22T17:10:31.299Z,2.60
2018-06-22T17:13:06.126Z,3.10
2018-06-22T17:15:40.895Z,3.17
2018-06-22T17:18:15.686Z,3.50
2018-06-22T17:20:45.191Z,3.37
2018-06-22T17:23:14.605Z,2.00
2018-06-22T17:25:44.239Z,2.80
2018-06-22T17:28:13.642Z,2.60
2018-06-22T17:30:43.461Z,2.60
2018-06-22T17:33:13.068Z,2.43
2018-06-22T17:35:42.538Z,2.80
2018-06-22T17:38:12.198Z,2.50
2018-06-22T17:40:41.774Z,2.40
2018-06-22T17:43:11.508Z,2.10
2018-06-22T17:45:40.992Z,2.53
2018-06-22T17:48:10.510Z,2.00
2018-06-22T17:50:39.990Z,3.90
2018-06-22T17:53:09.428Z,2.20
2018-06-22T17:55:38.997Z,2.77
2018-06-22T17:58:08.489Z,3.30
2018-06-22T18:00:43.065Z,3.10
2018-06-22T18:03:17.764Z,2.13
2018-06-22T18:05:52.589Z,2.47
2018-06-22T18:08:27.386Z,2.80
2018-06-22T18:11:02.100Z,2.40
2018-06-22T18:13:33.327Z,3.27
2018-06-22T18:16:02.809Z,1.97
2018-06-22T18:18:32.342Z,2.37
2018-06-22T18:21:01.843Z,3.10
2018-06-22T18:23:32.284Z,2.60
2018-06-22T18:26:01.780Z,2.27
2018-06-22T18:28:31.510Z,2.20
2018-06-22T18:31:01.685Z,2.77
2018-06-22T18:33:31.298Z,2.70
2018-06-22T18:36:01.414Z,2.20
2018-06-22T18:38:30.957Z,2.87
2018-06-22T18:41:00.713Z,3.50
2018-06-22T18:43:35.396Z,2.90
2018-06-22T18:46:05.046Z,3.03
2018-06-22T18:48:34.935Z,2.73
2018-06-22T18:51:04.500Z,2.87
2018-06-22T18:53:39.127Z,2.50
2018-06-22T18:56:18.674Z,2.73
2018-06-22T18:58:53.491Z,2.87
2018-06-22T19:01:28.641Z,2.50
2018-06-22T19:03:58.935Z,2.80
2018-06-22T19:06:29.181Z,2.83
2018-06-22T19:08:58.678Z,1.93
2018-06-22T19:11:29.532Z,2.73
2018-06-22T19:13:59.063Z,2.97
2018-06-22T19:16:28.546Z,2.23
2018-06-22T19:18:57.993Z,2.53
2018-06-22T19:21:27.577Z,2.40
2018-06-22T19:23:57.125Z,2.67
2018-06-22T19:26:27.917Z,3.60
2018-06-22T19:28:57.790Z,3.13
2018-06-22T19:31:27.276Z,3.20
2018-06-22T19:33:56.721Z,2.87
2018-06-22T19:36:26.342Z,3.60
2018-06-22T19:38:55.974Z,3.37
2018-06-22T19:41:25.689Z,2.50
2018-06-22T19:44:00.362Z,2.33
2018-06-22T19:46:35.826Z,2.83
2018-06-22T19:49:10.775Z,3.63
2018-06-22T19:51:45.509Z,3.07
2018-06-22T19:54:15.539Z,3.03
2018-06-22T19:56:45.192Z,2.60
2018-06-22T19:59:14.813Z,3.00
2018-06-22T20:01:45.471Z,2.97
2018-06-22T20:04:14.950Z,3.00
2018-06-22T20:06:44.381Z,3.50
2018-06-22T20:09:13.909Z,3.30
2018-06-22T20:11:43.737Z,4.00
2018-06-22T20:14:13.478Z,2.40
2018-06-22T20:16:42.649Z,3.00
2018-06-22T20:19:13.182Z,4.30
2018-06-22T20:21:42.739Z,3.13
2018-06-22T20:24:12.331Z,3.57
2018-06-22T20:26:41.779Z,3.83
2018-06-22T20:29:11.263Z,4.27
2018-06-22T20:31:41.168Z,4.10
2018-06-22T20:34:16.025Z,3.83
2018-06-22T20:36:51.053Z,5.10
2018-06-22T20:39:25.830Z,5.47
2018-06-22T20:42:00.528Z,3.60
2018-06-22T20:44:35.407Z,4.03
2018-06-22T20:48:11.237Z,4.63
2018-06-22T20:50:40.927Z,3.83
2018-06-22T20:53:10.756Z,4.60
2018-06-22T20:55:40.949Z,4.33
2018-06-22T20:58:11.810Z,4.20
2018-06-22T21:00:41.284Z,4.80
2018-06-22T21:03:10.966Z,5.13
2018-06-22T21:05:40.265Z,4.97
2018-06-22T21:08:09.510Z,4.40
2018-06-22T21:10:40.281Z,5.50
2018-06-22T21:13:10.868Z,4.90
2018-06-22T21:15:40.996Z,5.23
2018-06-22T21:18:11.330Z,4.80
2018-06-22T21:20:46.324Z,5.37
2018-06-22T21:23:15.919Z,6.43
2018-06-22T21:25:45.828Z,5.50
2018-06-22T21:28:20.610Z,6.17
2018-06-22T21:30:55.498Z,4.70
2018-06-22T21:33:29.798Z,5.43
2018-06-22T21:37:02.301Z,6.67
2018-06-22T21:39:31.603Z,6.90
2018-06-22T21:42:01.231Z,6.53
2018-06-22T21:44:31.004Z,5.20
2018-06-22T21:47:01.693Z,4.67
2018-06-22T21:49:31.323Z,5.03
2018-06-22T21:52:00.960Z,5.30
2018-06-22T21:54:30.448Z,6.20
2018-06-22T21:56:59.911Z,5.20
2018-06-22T21:59:29.463Z,5.40
2018-06-22T22:01:58.959Z,4.40
2018-06-22T22:04:28.551Z,4.97
2018-06-22T22:06:58.398Z,4.53
2018-06-22T22:09:32.807Z,4.97
2018-06-22T22:12:04.405Z,5.53
2018-06-22T22:14:33.947Z,5.03
2018-06-22T22:17:04.796Z,4.73
2018-06-22T22:19:34.524Z,6.20
2018-06-22T22:22:04.334Z,4.37
2018-06-22T22:24:34.359Z,4.47
2018-06-22T22:27:04.576Z,4.27
2018-06-22T22:29:35.425Z,6.00
2018-06-22T22:32:04.905Z,4.80
2018-06-22T22:34:35.094Z,6.10
2018-06-22T22:37:05.687Z,5.57
2018-06-22T22:39:35.100Z,4.20
2018-06-22T22:42:04.587Z,4.37
2018-06-22T22:44:34.174Z,4.20
2018-06-22T22:47:03.702Z,6.00
2018-06-22T22:49:33.992Z,5.33
2018-06-22T22:52:03.880Z,4.50
2018-06-22T22:54:33.727Z,4.40
2018-06-22T22:57:04.672Z,4.63
2018-06-22T22:59:39.741Z,4.10
2018-06-22T23:02:10.231Z,3.87
2018-06-22T23:04:41.738Z,4.53
2018-06-22T23:07:12.176Z,6.47
2018-06-22T23:09:41.572Z,4.83
2018-06-22T23:12:12.020Z,4.90
2018-06-22T23:14:43.076Z,4.97
2018-06-22T23:17:15.625Z,5.10
2018-06-22T23:19:44.807Z,4.47
2018-06-22T23:22:15.240Z,4.90
2018-06-22T23:24:46.042Z,4.37
2018-06-22T23:27:15.769Z,5.50
2018-06-22T23:29:45.271Z,4.90
2018-06-22T23:32:14.920Z,5.53
2018-06-22T23:34:44.220Z,4.93
2018-06-22T23:37:13.744Z,5.30
2018-06-22T23:39:43.896Z,6.33
2018-06-22T23:42:13.806Z,5.00
2018-06-22T23:44:43.338Z,4.77
2018-06-22T23:47:13.252Z,5.00
2018-06-22T23:49:43.179Z,5.00
2018-06-22T23:52:12.971Z,4.93
2018-06-22T23:54:43.409Z,5.00
2018-06-22T23:57:13.283Z,4.80
2018-06-22T23:59:43.278Z,3.80
